createdAt,value
2023-04-16T00:00:09.468Z,98400.34
2023-04-16T00:01:12.391Z,98403.56
2023-04-16T00:02:14.990Z,98402.31
2023-04-16T00:03:17.137Z,98404.38
2023-04-16T00:04:19.237Z,98406.22
2023-04-16T00:05:21.115Z,98401.16
2023-04-16T00:06:23.409Z,98410.13
2023-04-16T00:07:25.237Z,98404.81
2023-04-16T00:08:26.995Z,98401.63
2023-04-16T00:09:28.861Z,98405.09
2023-04-16T00:10:30.668Z,98401.16
2023-04-16T00:11:32.378Z,98400.34
2023-04-16T00:12:34.141Z,98404.06
2023-04-16T00:13:35.865Z,98409.78
2023-04-16T00:14:37.710Z,98402.53
2023-04-16T00:15:39.431Z,98365.09
2023-04-16T00:16:41.174Z,98405.28
2023-04-16T00:17:42.943Z,98399.78
2023-04-16T00:18:44.708Z,98397.13
2023-04-16T00:19:46.699Z,98414.16
2023-04-16T00:20:48.898Z,98396.78
2023-04-16T00:21:51.114Z,98402.44
2023-04-16T00:22:52.855Z,98411.13
2023-04-16T00:23:54.682Z,98413.56
2023-04-16T00:24:56.566Z,98412.53
2023-04-16T00:26:00.211Z,98405.53
2023-04-16T00:27:02.206Z,98412.75
2023-04-16T00:28:05.657Z,98408.03
2023-04-16T00:29:07.504Z,98413.69
2023-04-16T00:30:09.815Z,98414.94
2023-04-16T00:31:11.595Z,98418.75
2023-04-16T00:32:13.466Z,98411.72
2023-04-16T00:33:15.942Z,98420.84
2023-04-16T00:34:17.681Z,98422.22
2023-04-16T00:35:19.573Z,98424.88
2023-04-16T00:36:21.399Z,98427.06
2023-04-16T00:37:24.926Z,98429.47
2023-04-16T00:38:30.536Z,98430.53
2023-04-16T00:39:32.228Z,98432.69
2023-04-16T00:40:33.995Z,98428.66
2023-04-16T00:41:35.804Z,98437.75
2023-04-16T00:42:38.264Z,98431.44
2023-04-16T00:43:40.023Z,98430.84
2023-04-16T00:44:41.721Z,98432.00
2023-04-16T00:45:43.521Z,98426.72
2023-04-16T00:46:46.167Z,98423.50
2023-04-16T00:47:47.997Z,98420.72
2023-04-16T00:48:51.748Z,98421.28
2023-04-16T00:49:53.571Z,98423.50
2023-04-16T00:50:56.084Z,98430.16
2023-04-16T00:51:57.917Z,98425.91
2023-04-16T00:52:59.700Z,98433.63
2023-04-16T00:54:02.384Z,98430.97
2023-04-16T00:55:06.756Z,98430.53
2023-04-16T00:56:09.935Z,98426.28
2023-04-16T00:57:14.837Z,98429.50
2023-04-16T00:58:17.174Z,98424.19
2023-04-16T00:59:18.897Z,98416.50
2023-04-16T01:00:21.473Z,98421.31
2023-04-16T01:01:23.259Z,98425.56
2023-04-16T01:02:25.660Z,98422.91
2023-04-16T01:03:37.573Z,98419.47
2023-04-16T01:04:39.513Z,98414.50
2023-04-16T01:05:41.289Z,98419.69
2023-04-16T01:06:43.156Z,98401.72
2023-04-16T01:07:44.916Z,98417.28
2023-04-16T01:08:48.097Z,98414.88
2023-04-16T01:09:49.780Z,98415.09
2023-04-16T01:10:51.482Z,98414.50
2023-04-16T01:11:53.199Z,98414.97
2023-04-16T01:12:54.919Z,98416.59
2023-04-16T01:13:56.638Z,98421.19
2023-04-16T01:14:58.539Z,98417.72
2023-04-16T01:16:01.586Z,98416.34
2023-04-16T01:17:04.255Z,98423.13
2023-04-16T01:18:19.324Z,98427.63
2023-04-16T01:19:21.072Z,98423.34
2023-04-16T01:20:22.872Z,98418.88
2023-04-16T01:21:24.571Z,98431.88
2023-04-16T01:22:27.867Z,98424.97
2023-04-16T01:23:29.821Z,98424.41
2023-04-16T01:24:32.225Z,98426.59
2023-04-16T01:25:33.956Z,98417.03
2023-04-16T01:26:35.732Z,98420.16
2023-04-16T01:27:37.762Z,98431.06
2023-04-16T01:28:39.498Z,98434.53
2023-04-16T01:29:41.350Z,98419.69
2023-04-16T01:30:43.106Z,98423.50
2023-04-16T01:31:46.821Z,98423.50
2023-04-16T01:32:48.816Z,98414.97
2023-04-16T01:33:50.742Z,98409.00
2023-04-16T01:34:52.436Z,98418.66
2023-04-16T01:35:54.132Z,98419.44
2023-04-16T01:36:55.905Z,98421.06
2023-04-16T01:37:57.597Z,98419.22
2023-04-16T01:38:59.334Z,98420.25
2023-04-16T01:40:01.116Z,98412.53
2023-04-16T01:41:02.880Z,98411.41
2023-04-16T01:42:04.640Z,98413.47
2023-04-16T01:43:06.350Z,98424.88
2023-04-16T01:44:08.075Z,98418.53
2023-04-16T01:45:10.116Z,98419.78
2023-04-16T01:46:20.580Z,98427.75
2023-04-16T01:47:22.546Z,98420.25
2023-04-16T01:48:24.263Z,98413.56
2023-04-16T01:49:26.054Z,98409.06
2023-04-16T01:50:28.505Z,98418.41
2023-04-16T01:51:30.324Z,98417.38
2023-04-16T01:52:32.121Z,98417.38
2023-04-16T01:53:36.538Z,98406.56
2023-04-16T01:54:38.851Z,98406.56
2023-04-16T01:55:40.534Z,98405.19
2023-04-16T01:56:42.274Z,98398.28
2023-04-16T01:57:43.979Z,98405.19
2023-04-16T01:58:48.524Z,98398.28
2023-04-16T01:59:50.254Z,98393.78
2023-04-16T02:00:51.967Z,98406.78
2023-04-16T02:01:54.210Z,98394.00
2023-04-16T02:02:56.289Z,98396.44
2023-04-16T02:03:58.474Z,98399.66
2023-04-16T02:05:00.258Z,98398.03
2023-04-16T02:06:02.096Z,98394.38
2023-04-16T02:07:04.662Z,98393.44
2023-04-16T02:08:06.519Z,98396.44
2023-04-16T02:09:08.591Z,98392.75
2023-04-16T02:10:10.503Z,98406.56
2023-04-16T02:11:12.248Z,98404.16
2023-04-16T02:12:14.127Z,98407.81
2023-04-16T02:13:16.758Z,98400.34
2023-04-16T02:14:18.632Z,98403.78
2023-04-16T02:15:20.557Z,98398.72
2023-04-16T02:16:22.336Z,98398.97
2023-04-16T02:17:24.175Z,98398.03
2023-04-16T02:18:25.965Z,98400.69
2023-04-16T02:19:27.708Z,98396.41
2023-04-16T02:20:29.457Z,98394.22
2023-04-16T02:21:31.954Z,98403.78
2023-04-16T02:22:33.746Z,98405.59
2023-04-16T02:23:35.708Z,98403.19
2023-04-16T02:24:37.437Z,98402.38
2023-04-16T02:25:41.368Z,98391.78
2023-04-16T02:26:43.175Z,98405.72
2023-04-16T02:27:44.885Z,98405.28
2023-04-16T02:28:46.580Z,98376.66
2023-04-16T02:29:48.304Z,98412.03
2023-04-16T02:30:50.034Z,98407.78
2023-04-16T02:31:51.953Z,98412.50
2023-04-16T02:32:53.709Z,98411.47
2023-04-16T02:33:55.412Z,98403.38
2023-04-16T02:34:57.284Z,98410.88
2023-04-16T02:35:59.031Z,98407.09
2023-04-16T02:37:00.963Z,98408.13
2023-04-16T02:38:04.267Z,98409.56
2023-04-16T02:39:06.057Z,98401.03
2023-04-16T02:40:08.520Z,98412.88
2023-04-16T02:41:10.235Z,98405.63
2023-04-16T02:42:11.978Z,98406.06
2023-04-16T02:43:13.703Z,98408.34
2023-04-16T02:44:15.844Z,98405.00
2023-04-16T02:45:17.618Z,98408.47
2023-04-16T02:46:19.408Z,98392.91
2023-04-16T02:47:21.205Z,98401.41
2023-04-16T02:48:23.095Z,98407.13
2023-04-16T02:49:24.842Z,98408.41
2023-04-16T02:50:26.711Z,98398.94
2023-04-16T02:51:29.235Z,98410.91
2023-04-16T02:52:32.400Z,98404.81
2023-04-16T02:53:34.679Z,98412.53
2023-04-16T02:54:36.479Z,98411.72
2023-04-16T02:55:38.141Z,98412.97
2023-04-16T02:56:39.851Z,98413.56
2023-04-16T02:57:42.716Z,98419.06
2023-04-16T02:58:44.456Z,98419.50
2023-04-16T02:59:46.183Z,98417.88
2023-04-16T03:00:48.172Z,98415.56
2023-04-16T03:01:50.091Z,98417.38
2023-04-16T03:02:51.990Z,98412.91
2023-04-16T03:03:53.831Z,98421.44
2023-04-16T03:04:55.706Z,98410.28
2023-04-16T03:05:57.448Z,98418.78
2023-04-16T03:06:59.162Z,98414.75
2023-04-16T03:08:01.157Z,98406.59
2023-04-16T03:09:02.921Z,98408.81
2023-04-16T03:10:05.647Z,98410.63
2023-04-16T03:11:07.688Z,98410.63
2023-04-16T03:12:09.360Z,98400.72
2023-04-16T03:13:11.091Z,98409.84
2023-04-16T03:14:12.782Z,98407.19
2023-04-16T03:15:14.498Z,98408.22
2023-04-16T03:16:16.488Z,98414.53
2023-04-16T03:17:18.362Z,98413.94
2023-04-16T03:18:20.119Z,98400.59
2023-04-16T03:19:21.812Z,98408.53
2023-04-16T03:20:23.999Z,98414.63
2023-04-16T03:21:26.004Z,98413.22
2023-04-16T03:22:27.731Z,98414.25
2023-04-16T03:23:29.488Z,98410.06
2023-04-16T03:24:31.289Z,98415.50
2023-04-16T03:25:33.039Z,98418.94
2023-04-16T03:26:34.781Z,98419.38
2023-04-16T03:27:36.487Z,98428.06
2023-04-16T03:28:38.192Z,98429.66
2023-04-16T03:29:40.045Z,98429.41
2023-04-16T03:30:41.772Z,98424.00
2023-04-16T03:31:43.503Z,98439.19
2023-04-16T03:32:45.300Z,98437.50
2023-04-16T03:33:47.000Z,98438.31
2023-04-16T03:34:48.726Z,98447.25
2023-04-16T03:35:59.708Z,98437.50
2023-04-16T03:37:01.659Z,98441.75
2023-04-16T03:38:03.343Z,98436.47
2023-04-16T03:39:05.071Z,98437.50
2023-04-16T03:40:07.498Z,98437.50
2023-04-16T03:41:09.194Z,98433.91
2023-04-16T03:42:11.040Z,98441.59
2023-04-16T03:43:12.744Z,98445.28
2023-04-16T03:44:14.442Z,98442.88
2023-04-16T03:45:16.355Z,98443.69
2023-04-16T03:46:18.154Z,98444.47
2023-04-16T03:47:23.127Z,98451.16
2023-04-16T03:48:24.820Z,98447.47
2023-04-16T03:49:26.564Z,98452.13
2023-04-16T03:50:28.312Z,98444.41
2023-04-16T03:51:30.022Z,98451.91
2023-04-16T03:52:31.726Z,98450.88
2023-04-16T03:53:33.442Z,98442.56
2023-04-16T03:54:35.173Z,98442.94
2023-04-16T03:55:36.869Z,98448.34
2023-04-16T03:56:40.476Z,98444.91
2023-04-16T03:57:42.238Z,98444.25
2023-04-16T03:58:43.921Z,98445.66
2023-04-16T03:59:45.640Z,98443.34
2023-04-16T04:00:47.634Z,98448.56
2023-04-16T04:01:49.491Z,98445.47
2023-04-16T04:02:51.364Z,98444.88
2023-04-16T04:03:53.335Z,98446.84
2023-04-16T04:04:55.218Z,98449.03
2023-04-16T04:05:57.098Z,98450.44
2023-04-16T04:06:58.859Z,98453.22
2023-04-16T04:08:00.637Z,98442.88
2023-04-16T04:09:02.516Z,98452.53
2023-04-16T04:10:04.517Z,98434.34
2023-04-16T04:11:06.199Z,98456.13
2023-04-16T04:12:08.118Z,98455.09
2023-04-16T04:13:10.335Z,98457.91
2023-04-16T04:14:12.225Z,98455.25
2023-04-16T04:15:14.307Z,98468.47
2023-04-16T04:16:16.333Z,98459.50
2023-04-16T04:17:18.203Z,98446.59
2023-04-16T04:18:19.914Z,98460.31
2023-04-16T04:19:21.599Z,98459.50
2023-04-16T04:20:23.654Z,98467.16
2023-04-16T04:21:26.031Z,98464.84
2023-04-16T04:22:27.735Z,98463.00
2023-04-16T04:23:29.457Z,98461.97
2023-04-16T04:24:31.180Z,98466.81
2023-04-16T04:25:32.905Z,98462.69
2023-04-16T04:26:34.675Z,98460.88
2023-04-16T04:27:36.705Z,98448.88
2023-04-16T04:28:38.434Z,98453.47
2023-04-16T04:29:40.126Z,98450.59
2023-04-16T04:30:42.158Z,98443.16
2023-04-16T04:31:43.916Z,98459.72
2023-04-16T04:32:45.746Z,98448.09
2023-04-16T04:33:47.467Z,98447.97
2023-04-16T04:34:49.215Z,98457.88
2023-04-16T04:35:51.165Z,98460.88
2023-04-16T04:36:52.888Z,98459.84
2023-04-16T04:37:54.602Z,98451.91
2023-04-16T04:38:56.448Z,98457.22
2023-04-16T04:39:58.224Z,98459.03
2023-04-16T04:41:00.416Z,98452.38
2023-04-16T04:42:03.442Z,98455.59
2023-04-16T04:43:05.228Z,98453.53
2023-04-16T04:44:07.103Z,98457.75
2023-04-16T04:45:09.698Z,98455.69
2023-04-16T04:46:11.537Z,98451.69
2023-04-16T04:47:13.999Z,98450.88
2023-04-16T04:48:16.230Z,98442.22
2023-04-16T04:49:17.963Z,98452.72
2023-04-16T04:50:19.862Z,98446.84
2023-04-16T04:51:21.593Z,98448.69
2023-04-16T04:52:23.314Z,98452.59
2023-04-16T04:53:25.039Z,98441.63
2023-04-16T04:54:26.782Z,98457.06
2023-04-16T04:55:28.496Z,98452.81
2023-04-16T04:56:30.251Z,98462.94
2023-04-16T04:57:31.994Z,98456.84
2023-04-16T04:58:33.744Z,98468.59
2023-04-16T04:59:35.458Z,98465.69
2023-04-16T05:00:37.321Z,98466.75
2023-04-16T05:01:39.190Z,98463.63
2023-04-16T05:02:41.211Z,98463.06
2023-04-16T05:03:43.076Z,98453.97
2023-04-16T05:04:44.905Z,98465.97
2023-04-16T05:05:46.997Z,98467.13
2023-04-16T05:06:48.765Z,98462.84
2023-04-16T05:07:50.696Z,98469.44
2023-04-16T05:08:52.446Z,98471.50
2023-04-16T05:09:54.242Z,98468.41
2023-04-16T05:10:56.025Z,98475.88
2023-04-16T05:11:57.847Z,98477.84
2023-04-16T05:12:59.625Z,98472.31
2023-04-16T05:14:01.307Z,98481.66
2023-04-16T05:15:03.166Z,98474.75
2023-04-16T05:16:05.202Z,98483.59
2023-04-16T05:17:08.104Z,98485.56
2023-04-16T05:18:10.015Z,98487.53
2023-04-16T05:19:11.975Z,98478.88
2023-04-16T05:20:13.904Z,98482.13
2023-04-16T05:21:15.674Z,98473.50
2023-04-16T05:22:19.079Z,98466.56
2023-04-16T05:23:20.816Z,98472.56
2023-04-16T05:24:22.777Z,98472.91
2023-04-16T05:25:24.508Z,98463.91
2023-04-16T05:26:26.274Z,98464.28
2023-04-16T05:27:28.046Z,98461.38
2023-04-16T05:28:30.819Z,98464.25
2023-04-16T05:29:32.584Z,98463.06
2023-04-16T05:30:34.363Z,98471.97
2023-04-16T05:31:36.211Z,98475.66
2023-04-16T05:32:39.739Z,98470.78
2023-04-16T05:33:41.475Z,98475.56
2023-04-16T05:34:43.282Z,98485.44
2023-04-16T05:35:44.962Z,98484.25
2023-04-16T05:36:47.039Z,98473.69
2023-04-16T05:37:48.735Z,98480.03
2023-04-16T05:38:50.674Z,98471.56
2023-04-16T05:39:52.382Z,98478.59
2023-04-16T05:40:54.174Z,98464.88
2023-04-16T05:41:55.870Z,98467.38
2023-04-16T05:42:57.634Z,98466.34
2023-04-16T05:43:59.345Z,98472.09
2023-04-16T05:45:04.338Z,98471.66
2023-04-16T05:46:06.086Z,98472.72
2023-04-16T05:47:09.502Z,98474.84
2023-04-16T05:48:11.451Z,98478.03
2023-04-16T05:49:13.192Z,98483.56
2023-04-16T05:50:15.030Z,98481.28
2023-04-16T05:51:16.743Z,98481.84
2023-04-16T05:52:18.448Z,98486.16
2023-04-16T05:53:20.247Z,98475.47
2023-04-16T05:54:22.047Z,98478.34
2023-04-16T05:55:23.786Z,98478.22
2023-04-16T05:56:25.637Z,98479.19
2023-04-16T05:57:28.851Z,98478.00
2023-04-16T05:58:30.611Z,98471.97
2023-04-16T05:59:32.329Z,98472.84
2023-04-16T06:00:34.183Z,98476.34
2023-04-16T06:01:36.083Z,98478.81
2023-04-16T06:02:38.081Z,98474.34
2023-04-16T06:03:39.878Z,98476.06
2023-04-16T06:04:41.738Z,98464.53
2023-04-16T06:05:43.572Z,98474.13
2023-04-16T06:06:45.316Z,98465.06
2023-04-16T06:07:47.105Z,98466.44
2023-04-16T06:08:48.815Z,98463.88
2023-04-16T06:09:50.525Z,98469.41
2023-04-16T06:10:52.293Z,98468.84
2023-04-16T06:11:54.063Z,98466.50
2023-04-16T06:12:55.752Z,98462.03
2023-04-16T06:13:57.446Z,98461.94
2023-04-16T06:15:00.597Z,98458.97
2023-04-16T06:16:02.376Z,98457.06
2023-04-16T06:17:04.083Z,98457.97
2023-04-16T06:18:08.682Z,98452.88
2023-04-16T06:19:10.740Z,98460.75
2023-04-16T06:20:13.094Z,98454.84
2023-04-16T06:21:14.991Z,98442.16
2023-04-16T06:22:16.803Z,98456.19
2023-04-16T06:23:18.510Z,98448.00
2023-04-16T06:24:20.247Z,98445.88
2023-04-16T06:25:22.104Z,98451.28
2023-04-16T06:26:23.891Z,98448.28
2023-04-16T06:27:26.078Z,98435.03
2023-04-16T06:28:27.781Z,98432.00
2023-04-16T06:29:40.690Z,98446.66
2023-04-16T06:30:44.639Z,98442.34
2023-04-16T06:31:46.756Z,98442.97
2023-04-16T06:32:49.255Z,98441.38
2023-04-16T06:33:50.986Z,98432.72
2023-04-16T06:34:52.696Z,98433.09
2023-04-16T06:35:54.395Z,98445.91
2023-04-16T06:36:56.087Z,98448.66
2023-04-16T06:37:57.861Z,98441.97
2023-04-16T06:38:59.523Z,98445.84
2023-04-16T06:40:01.506Z,98443.34
2023-04-16T06:41:03.891Z,98436.84
2023-04-16T06:42:05.637Z,98441.16
2023-04-16T06:43:07.395Z,98441.84
2023-04-16T06:44:09.125Z,98447.72
2023-04-16T06:45:11.724Z,98446.47
2023-04-16T06:46:13.510Z,98460.47
2023-04-16T06:47:15.866Z,98449.34
2023-04-16T06:48:17.747Z,98448.84
2023-04-16T06:49:19.454Z,98457.44
2023-04-16T06:50:22.377Z,98457.59
2023-04-16T06:51:24.094Z,98454.81
2023-04-16T06:52:25.912Z,98448.13
2023-04-16T06:53:27.625Z,98454.66
2023-04-16T06:54:29.348Z,98457.53
2023-04-16T06:55:33.010Z,98454.81
2023-04-16T06:56:35.937Z,98461.09
2023-04-16T06:57:37.850Z,98452.31
2023-04-16T06:58:39.545Z,98451.09
2023-04-16T06:59:41.292Z,98455.22
2023-04-16T07:00:43.106Z,98456.94
2023-04-16T07:01:45.163Z,98451.00
2023-04-16T07:02:47.104Z,98450.34
2023-04-16T07:03:51.877Z,98450.63
2023-04-16T07:04:53.814Z,98450.34
2023-04-16T07:05:55.681Z,98451.19
2023-04-16T07:06:57.410Z,98439.94
2023-04-16T07:07:59.535Z,98452.00
2023-04-16T07:09:01.317Z,98447.09
2023-04-16T07:10:03.085Z,98444.25
2023-04-16T07:11:05.222Z,98442.97
2023-04-16T07:12:07.409Z,98453.63
2023-04-16T07:13:09.132Z,98449.28
2023-04-16T07:14:11.029Z,98445.66
2023-04-16T07:15:12.795Z,98445.44
2023-04-16T07:16:14.700Z,98452.56
2023-04-16T07:17:16.502Z,98446.78
2023-04-16T07:18:19.289Z,98450.09
2023-04-16T07:19:22.335Z,98451.47
2023-04-16T07:20:24.209Z,98445.69
2023-04-16T07:21:26.322Z,98442.50
2023-04-16T07:22:28.038Z,98443.91
2023-04-16T07:23:30.118Z,98445.47
2023-04-16T07:24:32.451Z,98439.50
2023-04-16T07:25:34.167Z,98449.44
2023-04-16T07:26:35.986Z,98444.78
2023-04-16T07:27:37.679Z,98444.72
2023-04-16T07:28:39.505Z,98443.72
2023-04-16T07:29:41.331Z,98441.31
2023-04-16T07:30:43.606Z,98436.03
2023-04-16T07:31:45.951Z,98441.13
2023-04-16T07:32:47.765Z,98437.50
2023-04-16T07:33:49.554Z,98437.28
2023-04-16T07:34:51.614Z,98440.56
2023-04-16T07:35:53.384Z,98429.47
2023-04-16T07:36:55.127Z,98443.19
2023-04-16T07:37:56.826Z,98443.19
2023-04-16T07:38:58.581Z,98438.09
2023-04-16T07:40:00.918Z,98435.22
2023-04-16T07:41:02.703Z,98440.47
2023-04-16T07:42:04.494Z,98441.47
2023-04-16T07:43:06.213Z,98431.84
2023-04-16T07:44:08.257Z,98436.31
2023-04-16T07:45:10.353Z,98432.78
2023-04-16T07:46:12.045Z,98433.38
2023-04-16T07:47:13.822Z,98427.41
2023-04-16T07:48:15.611Z,98416.44
2023-04-16T07:49:17.406Z,98412.88
2023-04-16T07:50:19.643Z,98419.59
2023-04-16T07:51:21.369Z,98418.94
2023-04-16T07:52:23.090Z,98414.63
2023-04-16T07:53:24.795Z,98423.66
2023-04-16T07:54:28.869Z,98422.13
2023-04-16T07:55:30.823Z,98430.16
2023-04-16T07:56:32.605Z,98419.56
2023-04-16T07:57:34.475Z,98424.69
2023-04-16T07:58:36.212Z,98421.53
2023-04-16T07:59:37.908Z,98420.41
2023-04-16T08:00:39.968Z,98424.47
2023-04-16T08:01:41.835Z,98431.22
2023-04-16T08:02:43.997Z,98437.06
2023-04-16T08:03:46.094Z,98421.94
2023-04-16T08:04:48.134Z,98430.06
2023-04-16T08:05:49.938Z,98427.97
2023-04-16T08:06:52.067Z,98433.56
2023-04-16T08:07:53.812Z,98423.06
2023-04-16T08:08:56.243Z,98427.69
2023-04-16T08:09:57.993Z,98435.50
2023-04-16T08:11:00.220Z,98438.19
2023-04-16T08:12:02.836Z,98442.16
2023-04-16T08:13:04.596Z,98438.72
2023-04-16T08:14:06.376Z,98441.22
2023-04-16T08:15:08.438Z,98446.03
2023-04-16T08:16:10.336Z,98442.44
2023-04-16T08:17:12.973Z,98445.44
2023-04-16T08:18:15.844Z,98439.03
2023-04-16T08:19:17.668Z,98442.66
2023-04-16T08:20:19.674Z,98447.22
2023-04-16T08:21:22.059Z,98451.06
2023-04-16T08:22:23.782Z,98443.00
2023-04-16T08:23:25.492Z,98441.72
2023-04-16T08:24:27.177Z,98439.84
2023-04-16T08:25:28.931Z,98442.69
2023-04-16T08:26:30.694Z,98445.78
2023-04-16T08:27:32.382Z,98436.41
2023-04-16T08:28:34.208Z,98441.81
2023-04-16T08:29:35.951Z,98446.94
2023-04-16T08:30:37.674Z,98444.34
2023-04-16T08:31:39.525Z,98418.03
2023-04-16T08:32:41.513Z,98436.56
2023-04-16T08:33:43.451Z,98437.84
2023-04-16T08:34:45.305Z,98440.75
2023-04-16T08:35:47.160Z,98415.50
2023-04-16T08:36:48.889Z,98446.84
2023-04-16T08:37:50.644Z,98443.09
2023-04-16T08:38:52.468Z,98440.09
2023-04-16T08:39:54.268Z,98425.53
2023-04-16T08:41:00.981Z,98433.69
2023-04-16T08:42:05.763Z,98435.91
2023-04-16T08:43:12.473Z,98439.50
2023-04-16T08:44:26.429Z,98434.00
2023-04-16T08:45:28.471Z,98424.47
2023-04-16T08:46:31.680Z,98425.69
2023-04-16T08:47:37.087Z,98425.63
2023-04-16T08:48:38.930Z,98417.81
2023-04-16T08:49:47.920Z,98431.38
2023-04-16T08:50:52.946Z,98424.44
2023-04-16T08:51:57.419Z,98422.28
2023-04-16T08:53:03.959Z,98426.00
2023-04-16T08:54:09.544Z,98411.84
2023-04-16T08:55:16.996Z,98419.31
2023-04-16T08:56:21.611Z,98407.72
2023-04-16T08:57:27.281Z,98412.00
2023-04-16T08:58:34.800Z,98402.47
2023-04-16T08:59:37.415Z,98393.91
2023-04-16T09:00:41.337Z,98396.09
2023-04-16T09:01:45.752Z,98399.69
2023-04-16T09:02:47.828Z,98396.47
2023-04-16T09:03:50.093Z,98382.66
2023-04-16T09:04:53.889Z,98392.06
2023-04-16T09:05:59.309Z,98385.97
2023-04-16T09:07:03.954Z,98392.88
2023-04-16T09:08:07.057Z,98387.78
2023-04-16T09:09:09.531Z,98394.09
2023-04-16T09:10:12.320Z,98389.13
2023-04-16T09:11:14.617Z,98388.78
2023-04-16T09:12:17.504Z,98380.56
2023-04-16T09:13:20.731Z,98389.03
2023-04-16T09:14:22.634Z,98394.09
2023-04-16T09:15:28.148Z,98383.47
2023-04-16T09:16:34.219Z,98378.22
2023-04-16T09:17:36.308Z,98383.78
2023-04-16T09:18:38.105Z,98383.63
2023-04-16T09:19:39.803Z,98375.81
2023-04-16T09:20:41.510Z,98381.50
2023-04-16T09:21:47.018Z,98377.84
2023-04-16T09:22:48.998Z,98377.44
2023-04-16T09:23:53.028Z,98378.91
2023-04-16T09:24:54.714Z,98373.91
2023-04-16T09:25:59.401Z,98371.31
2023-04-16T09:27:01.302Z,98377.59
2023-04-16T09:28:03.361Z,98367.81
2023-04-16T09:29:05.143Z,98376.72
2023-04-16T09:30:27.716Z,98372.75
2023-04-16T09:31:29.681Z,98379.13
2023-04-16T09:32:31.463Z,98381.91
2023-04-16T09:33:34.997Z,98376.69
2023-04-16T09:34:59.182Z,98383.88
2023-04-16T09:36:06.186Z,98378.25
2023-04-16T09:37:17.940Z,98374.03
2023-04-16T09:38:20.544Z,98373.88
2023-04-16T09:39:23.400Z,98372.03
2023-04-16T09:40:27.504Z,98364.25
2023-04-16T09:41:36.200Z,98364.13
2023-04-16T09:42:38.087Z,98366.47
2023-04-16T09:43:39.801Z,98366.31
2023-04-16T09:44:41.488Z,98362.84
2023-04-16T09:45:51.188Z,98357.44
2023-04-16T09:46:53.019Z,98364.97
2023-04-16T09:48:03.999Z,98359.16
2023-04-16T09:49:10.651Z,98361.59
2023-04-16T09:50:18.896Z,98353.41
2023-04-16T09:51:20.940Z,98360.19
2023-04-16T09:52:23.638Z,98365.41
2023-04-16T09:53:29.604Z,98363.22
2023-04-16T09:54:31.355Z,98351.66
2023-04-16T09:55:33.274Z,98360.38
2023-04-16T09:56:43.674Z,98356.88
2023-04-16T09:57:45.521Z,98353.16
2023-04-16T09:58:47.380Z,98352.41
2023-04-16T09:59:53.480Z,98343.78
2023-04-16T10:01:11.290Z,98360.72
2023-04-16T10:02:15.319Z,98361.72
2023-04-16T10:03:25.636Z,98353.47
2023-04-16T10:04:28.493Z,98350.69
2023-04-16T10:05:30.203Z,98348.47
2023-04-16T10:06:31.947Z,98351.63
2023-04-16T10:07:35.632Z,98353.19
2023-04-16T10:08:37.347Z,98351.28
2023-04-16T10:09:42.410Z,98362.09
2023-04-16T10:10:45.128Z,98352.41
2023-04-16T10:11:47.406Z,98360.22
2023-04-16T10:12:49.118Z,98357.81
2023-04-16T10:13:51.581Z,98357.34
2023-04-16T10:14:53.474Z,98351.19
2023-04-16T10:15:57.045Z,98354.81
2023-04-16T10:16:59.658Z,98349.72
2023-04-16T10:18:02.437Z,98349.75
2023-04-16T10:19:04.921Z,98355.78
2023-04-16T10:20:07.893Z,98350.34
2023-04-16T10:21:12.809Z,98356.84
2023-04-16T10:22:14.661Z,98348.56
2023-04-16T10:23:16.457Z,98359.06
2023-04-16T10:24:18.407Z,98355.38
2023-04-16T10:25:20.496Z,98350.06
2023-04-16T10:26:22.555Z,98339.16
2023-04-16T10:27:27.119Z,98339.84
2023-04-16T10:28:29.584Z,98339.03
2023-04-16T10:29:32.409Z,98345.13
2023-04-16T10:30:34.528Z,98334.91
2023-04-16T10:31:38.809Z,98341.25
2023-04-16T10:32:41.625Z,98338.44
2023-04-16T10:33:44.547Z,98343.22
2023-04-16T10:34:48.068Z,98341.69
2023-04-16T10:36:07.263Z,98341.59
2023-04-16T10:37:09.771Z,98332.06
2023-04-16T10:38:28.491Z,98328.69
2023-04-16T10:39:30.430Z,98331.13
2023-04-16T10:40:32.186Z,98326.50
2023-04-16T10:41:33.993Z,98335.44
2023-04-16T10:42:35.770Z,98332.22
2023-04-16T10:43:41.681Z,98336.34
2023-04-16T10:44:45.389Z,98337.25
2023-04-16T10:45:48.284Z,98334.97
2023-04-16T10:46:50.106Z,98335.19
2023-04-16T10:47:51.974Z,98326.69
2023-04-16T10:48:55.181Z,98336.22
2023-04-16T10:49:58.379Z,98333.78
2023-04-16T10:51:01.145Z,98332.19
2023-04-16T10:52:17.384Z,98327.97
2023-04-16T10:53:20.356Z,98342.09
2023-04-16T10:54:28.006Z,98337.66
2023-04-16T10:55:29.708Z,98335.91
2023-04-16T10:56:36.145Z,98340.50
2023-04-16T10:57:37.883Z,98338.22
2023-04-16T10:58:39.664Z,98341.94
2023-04-16T10:59:43.671Z,98343.53
2023-04-16T11:00:52.341Z,98334.91
2023-04-16T11:01:56.628Z,98334.84
2023-04-16T11:02:58.697Z,98330.69
2023-04-16T11:04:02.413Z,98340.72
2023-04-16T11:05:04.751Z,98337.44
2023-04-16T11:06:17.685Z,98343.81
2023-04-16T11:07:21.050Z,98338.88
2023-04-16T11:08:24.236Z,98324.09
2023-04-16T11:09:59.753Z,98335.19
2023-04-16T11:11:04.953Z,98315.53
2023-04-16T11:12:09.761Z,98326.78
2023-04-16T11:13:13.112Z,98331.91
2023-04-16T11:14:15.530Z,98318.22
2023-04-16T11:15:21.497Z,98327.66
2023-04-16T11:16:25.878Z,98324.66
2023-04-16T11:17:53.730Z,98323.06
2023-04-16T11:19:07.533Z,98320.97
2023-04-16T11:20:22.242Z,98316.63
2023-04-16T11:21:24.671Z,98319.84
2023-04-16T11:22:27.374Z,98314.03
2023-04-16T11:23:29.185Z,98309.13
2023-04-16T11:24:33.957Z,98308.09
2023-04-16T11:25:35.671Z,98313.34
2023-04-16T11:26:37.384Z,98309.00
2023-04-16T11:27:39.139Z,98310.13
2023-04-16T11:28:40.923Z,98317.72
2023-04-16T11:29:44.588Z,98310.06
2023-04-16T11:30:47.540Z,98309.69
2023-04-16T11:31:53.777Z,98305.59
2023-04-16T11:32:55.839Z,98304.31
2023-04-16T11:33:57.922Z,98308.97
2023-04-16T11:35:03.883Z,98310.16
2023-04-16T11:36:06.208Z,98305.16
2023-04-16T11:37:07.986Z,98301.63
2023-04-16T11:38:09.702Z,98309.31
2023-04-16T11:39:11.791Z,98286.34
2023-04-16T11:40:14.072Z,98302.81
2023-04-16T11:41:22.062Z,98296.88
2023-04-16T11:42:23.997Z,98300.34
2023-04-16T11:43:26.776Z,98296.53
2023-04-16T11:44:29.396Z,98289.63
2023-04-16T11:45:31.307Z,98289.81
2023-04-16T11:46:42.806Z,98289.72
2023-04-16T11:47:56.915Z,98288.22
2023-04-16T11:48:58.766Z,98284.50
2023-04-16T11:50:33.514Z,98283.75
2023-04-16T11:51:40.640Z,98281.28
2023-04-16T11:52:42.371Z,98290.59
2023-04-16T11:53:53.203Z,98288.03
2023-04-16T11:54:55.469Z,98274.38
2023-04-16T11:55:57.356Z,98277.41
2023-04-16T11:56:59.152Z,98291.50
2023-04-16T11:58:13.024Z,98286.00
2023-04-16T11:59:19.096Z,98293.41
2023-04-16T12:00:23.080Z,98296.47
2023-04-16T12:01:26.773Z,98293.63
2023-04-16T12:02:38.740Z,98298.41
2023-04-16T12:03:47.155Z,98290.41
2023-04-16T12:04:49.166Z,98292.13
2023-04-16T12:05:50.948Z,98304.47
2023-04-16T12:07:14.572Z,98292.25
2023-04-16T12:08:29.181Z,98301.25
2023-04-16T12:09:30.928Z,98296.19
2023-04-16T12:10:37.934Z,98304.75
2023-04-16T12:11:43.069Z,98290.25
2023-04-16T12:12:47.915Z,98301.78
2023-04-16T12:14:11.944Z,98299.41
2023-04-16T12:15:13.771Z,98293.28
2023-04-16T12:16:21.487Z,98293.53
2023-04-16T12:17:24.550Z,98293.53
2023-04-16T12:18:29.630Z,98291.94
2023-04-16T12:19:31.382Z,98289.22